sensor_id;sensor_type;location;lat;lon;timestamp;temperature;humidity
16287;DHT22;8251;53.568;10.018;2023-03-14T00:00:06;13.40;86.90
16287;DHT22;8251;53.568;10.018;2023-03-14T00:02:33;13.40;87.00
16287;DHT22;8251;53.568;10.018;2023-03-14T00:05:00;13.40;87.10
16287;DHT22;8251;53.568;10.018;2023-03-14T00:07:37;13.40;87.50
16287;DHT22;8251;53.568;10.018;2023-03-14T00:10:09;13.40;87.50
16287;DHT22;8251;53.568;10.018;2023-03-14T00:12:41;13.30;87.60
16287;DHT22;8251;53.568;10.018;2023-03-14T00:15:15;13.30;87.80
16287;DHT22;8251;53.568;10.018;2023-03-14T00:17:43;13.40;87.60
16287;DHT22;8251;53.568;10.018;2023-03-14T00:20:11;13.40;87.30
16287;DHT22;8251;53.568;10.018;2023-03-14T00:22:40;13.50;87.30
16287;DHT22;8251;53.568;10.018;2023-03-14T00:25:13;13.50;87.10
16287;DHT22;8251;53.568;10.018;2023-03-14T00:27:42;13.50;87.10
16287;DHT22;8251;53.568;10.018;2023-03-14T00:30:12;13.40;86.80
16287;DHT22;8251;53.568;10.018;2023-03-14T00:32:45;13.40;86.90
16287;DHT22;8251;53.568;10.018;2023-03-14T00:35:17;13.40;86.90
16287;DHT22;8251;53.568;10.018;2023-03-14T00:37:45;13.30;86.90
16287;DHT22;8251;53.568;10.018;2023-03-14T00:40:13;13.30;86.70
16287;DHT22;8251;53.568;10.018;2023-03-14T00:42:40;13.20;86.80
16287;DHT22;8251;53.568;10.018;2023-03-14T00:45:10;13.20;86.90
16287;DHT22;8251;53.568;10.018;2023-03-14T00:47:37;13.20;86.80
16287;DHT22;8251;53.568;10.018;2023-03-14T00:50:06;13.10;86.80
16287;DHT22;8251;53.568;10.018;2023-03-14T00:52:34;13.10;87.10
16287;DHT22;8251;53.568;10.018;2023-03-14T00:55:07;13.20;87.20
16287;DHT22;8251;53.568;10.018;2023-03-14T00:57:37;13.20;87.40
16287;DHT22;8251;53.568;10.018;2023-03-14T01:00:09;13.20;87.20
16287;DHT22;8251;53.568;10.018;2023-03-14T01:02:37;13.30;86.80
16287;DHT22;8251;53.568;10.018;2023-03-14T01:05:05;13.30;86.50
16287;DHT22;8251;53.568;10.018;2023-03-14T01:07:32;13.40;86.20
16287;DHT22;8251;53.568;10.018;2023-03-14T01:10:03;13.40;86.00
16287;DHT22;8251;53.568;10.018;2023-03-14T01:12:34;13.50;85.90
16287;DHT22;8251;53.568;10.018;2023-03-14T01:15:04;13.50;85.60
16287;DHT22;8251;53.568;10.018;2023-03-14T01:17:32;13.50;85.40
16287;DHT22;8251;53.568;10.018;2023-03-14T01:20:00;13.50;85.40
16287;DHT22;8251;53.568;10.018;2023-03-14T01:22:30;13.50;85.40
16287;DHT22;8251;53.568;10.018;2023-03-14T01:24:56;13.50;85.40
16287;DHT22;8251;53.568;10.018;2023-03-14T01:27:26;13.50;85.20
16287;DHT22;8251;53.568;10.018;2023-03-14T01:29:54;13.50;85.20
16287;DHT22;8251;53.568;10.018;2023-03-14T01:32:22;13.60;85.00
16287;DHT22;8251;53.568;10.018;2023-03-14T01:34:51;13.60;84.90
16287;DHT22;8251;53.568;10.018;2023-03-14T01:37:21;13.60;85.90
16287;DHT22;8251;53.568;10.018;2023-03-14T01:39:55;13.60;84.60
16287;DHT22;8251;53.568;10.018;2023-03-14T01:42:25;13.60;84.50
16287;DHT22;8251;53.568;10.018;2023-03-14T01:45:02;13.70;84.40
16287;DHT22;8251;53.568;10.018;2023-03-14T01:47:29;13.70;84.00
16287;DHT22;8251;53.568;10.018;2023-03-14T01:50:01;13.60;84.30
16287;DHT22;8251;53.568;10.018;2023-03-14T01:52:31;13.70;84.30
16287;DHT22;8251;53.568;10.018;2023-03-14T01:55:04;13.70;84.20
16287;DHT22;8251;53.568;10.018;2023-03-14T01:57:36;13.70;84.60
16287;DHT22;8251;53.568;10.018;2023-03-14T02:00:07;13.80;84.70
16287;DHT22;8251;53.568;10.018;2023-03-14T02:02:47;13.80;84.80
16287;DHT22;8251;53.568;10.018;2023-03-14T02:05:21;13.80;85.00
16287;DHT22;8251;53.568;10.018;2023-03-14T02:07:59;13.80;85.20
16287;DHT22;8251;53.568;10.018;2023-03-14T02:10:31;13.80;85.20
16287;DHT22;8251;53.568;10.018;2023-03-14T02:13:03;13.80;85.30
16287;DHT22;8251;53.568;10.018;2023-03-14T02:15:33;13.80;85.40
16287;DHT22;8251;53.568;10.018;2023-03-14T02:18:15;13.80;85.40
16287;DHT22;8251;53.568;10.018;2023-03-14T02:20:47;13.80;85.40
16287;DHT22;8251;53.568;10.018;2023-03-14T02:23:26;13.80;85.60
16287;DHT22;8251;53.568;10.018;2023-03-14T02:26:00;13.80;85.50
16287;DHT22;8251;53.568;10.018;2023-03-14T02:28:32;13.80;85.40
16287;DHT22;8251;53.568;10.018;2023-03-14T02:31:10;13.80;85.40
16287;DHT22;8251;53.568;10.018;2023-03-14T02:33:40;13.80;85.20
16287;DHT22;8251;53.568;10.018;2023-03-14T02:36:13;13.80;85.30
16287;DHT22;8251;53.568;10.018;2023-03-14T02:38:50;13.80;85.40
16287;DHT22;8251;53.568;10.018;2023-03-14T02:41:18;13.70;85.40
16287;DHT22;8251;53.568;10.018;2023-03-14T02:43:47;13.60;85.60
16287;DHT22;8251;53.568;10.018;2023-03-14T02:46:16;13.60;85.60
16287;DHT22;8251;53.568;10.018;2023-03-14T02:48:53;13.60;85.60
16287;DHT22;8251;53.568;10.018;2023-03-14T02:51:26;13.60;85.60
16287;DHT22;8251;53.568;10.018;2023-03-14T02:53:55;13.60;85.60
16287;DHT22;8251;53.568;10.018;2023-03-14T02:56:22;13.60;85.60
16287;DHT22;8251;53.568;10.018;2023-03-14T02:58:53;13.60;85.60
16287;DHT22;8251;53.568;10.018;2023-03-14T03:01:20;13.60;85.80
16287;DHT22;8251;53.568;10.018;2023-03-14T03:03:53;13.60;85.80
16287;DHT22;8251;53.568;10.018;2023-03-14T03:06:26;13.60;85.80
16287;DHT22;8251;53.568;10.018;2023-03-14T03:09:05;13.60;86.00
16287;DHT22;8251;53.568;10.018;2023-03-14T03:11:32;13.60;85.90
16287;DHT22;8251;53.568;10.018;2023-03-14T03:14:01;13.60;86.00
16287;DHT22;8251;53.568;10.018;2023-03-14T03:16:30;13.60;86.20
16287;DHT22;8251;53.568;10.018;2023-03-14T03:18:59;13.60;86.30
16287;DHT22;8251;53.568;10.018;2023-03-14T03:21:29;13.60;86.20
16287;DHT22;8251;53.568;10.018;2023-03-14T03:23:56;13.60;86.00
16287;DHT22;8251;53.568;10.018;2023-03-14T03:26:23;13.60;86.00
16287;DHT22;8251;53.568;10.018;2023-03-14T03:28:57;13.60;85.90
16287;DHT22;8251;53.568;10.018;2023-03-14T03:31:26;13.60;85.90
16287;DHT22;8251;53.568;10.018;2023-03-14T03:33:53;13.60;85.60
16287;DHT22;8251;53.568;10.018;2023-03-14T03:36:24;13.60;85.80
16287;DHT22;8251;53.568;10.018;2023-03-14T03:38:51;13.60;85.70
16287;DHT22;8251;53.568;10.018;2023-03-14T03:41:18;13.60;85.60
16287;DHT22;8251;53.568;10.018;2023-03-14T03:43:48;13.50;85.60
16287;DHT22;8251;53.568;10.018;2023-03-14T03:46:23;13.60;85.60
16287;DHT22;8251;53.568;10.018;2023-03-14T03:49:05;13.60;85.40
16287;DHT22;8251;53.568;10.018;2023-03-14T03:51:32;13.70;85.30
16287;DHT22;8251;53.568;10.018;2023-03-14T03:53:59;13.70;85.20
16287;DHT22;8251;53.568;10.018;2023-03-14T03:56:26;13.70;85.10
16287;DHT22;8251;53.568;10.018;2023-03-14T03:58:53;13.70;85.10
16287;DHT22;8251;53.568;10.018;2023-03-14T04:01:21;13.60;85.10
16287;DHT22;8251;53.568;10.018;2023-03-14T04:03:50;13.70;85.20
16287;DHT22;8251;53.568;10.018;2023-03-14T04:06:19;13.60;85.20
16287;DHT22;8251;53.568;10.018;2023-03-14T04:08:48;13.50;85.50
16287;DHT22;8251;53.568;10.018;2023-03-14T04:11:16;13.50;85.30
16287;DHT22;8251;53.568;10.018;2023-03-14T04:13:43;13.40;85.60
16287;DHT22;8251;53.568;10.018;2023-03-14T04:16:14;13.40;85.50
16287;DHT22;8251;53.568;10.018;2023-03-14T04:18:45;13.40;85.70
16287;DHT22;8251;53.568;10.018;2023-03-14T04:21:12;13.30;85.80
16287;DHT22;8251;53.568;10.018;2023-03-14T04:24:08;13.40;85.80
16287;DHT22;8251;53.568;10.018;2023-03-14T04:26:35;13.40;85.60
16287;DHT22;8251;53.568;10.018;2023-03-14T04:29:02;13.40;85.80
16287;DHT22;8251;53.568;10.018;2023-03-14T04:31:29;13.30;85.90
16287;DHT22;8251;53.568;10.018;2023-03-14T04:33:58;13.20;85.90
16287;DHT22;8251;53.568;10.018;2023-03-14T04:36:29;13.10;86.00
16287;DHT22;8251;53.568;10.018;2023-03-14T04:38:56;13.10;86.30
16287;DHT22;8251;53.568;10.018;2023-03-14T04:41:25;13.20;86.20
16287;DHT22;8251;53.568;10.018;2023-03-14T04:43:52;13.20;86.00
16287;DHT22;8251;53.568;10.018;2023-03-14T04:46:20;13.10;86.10
16287;DHT22;8251;53.568;10.018;2023-03-14T04:48:46;13.10;86.20
16287;DHT22;8251;53.568;10.018;2023-03-14T04:51:14;13.10;86.10
16287;DHT22;8251;53.568;10.018;2023-03-14T04:53:41;13.00;86.20
16287;DHT22;8251;53.568;10.018;2023-03-14T04:56:09;13.00;86.50
16287;DHT22;8251;53.568;10.018;2023-03-14T04:58:40;13.00;86.30
16287;DHT22;8251;53.568;10.018;2023-03-14T05:01:07;12.90;86.30
16287;DHT22;8251;53.568;10.018;2023-03-14T05:03:34;12.90;86.80
16287;DHT22;8251;53.568;10.018;2023-03-14T05:06:04;12.80;87.20
16287;DHT22;8251;53.568;10.018;2023-03-14T05:08:31;12.70;87.00
16287;DHT22;8251;53.568;10.018;2023-03-14T05:10:58;12.80;87.00
16287;DHT22;8251;53.568;10.018;2023-03-14T05:13:26;12.80;86.60
16287;DHT22;8251;53.568;10.018;2023-03-14T05:16:06;12.80;86.80
16287;DHT22;8251;53.568;10.018;2023-03-14T05:18:33;12.90;86.70
16287;DHT22;8251;53.568;10.018;2023-03-14T05:21:00;12.90;86.70
16287;DHT22;8251;53.568;10.018;2023-03-14T05:23:27;12.90;87.60
16287;DHT22;8251;53.568;10.018;2023-03-14T05:25:54;13.00;88.40
16287;DHT22;8251;53.568;10.018;2023-03-14T05:28:21;13.00;89.00
16287;DHT22;8251;53.568;10.018;2023-03-14T05:30:48;12.90;90.00
16287;DHT22;8251;53.568;10.018;2023-03-14T05:33:16;12.80;90.10
16287;DHT22;8251;53.568;10.018;2023-03-14T05:35:44;12.70;90.30
16287;DHT22;8251;53.568;10.018;2023-03-14T05:38:11;12.70;90.40
16287;DHT22;8251;53.568;10.018;2023-03-14T05:40:38;12.60;90.50
16287;DHT22;8251;53.568;10.018;2023-03-14T05:43:04;12.50;90.80
16287;DHT22;8251;53.568;10.018;2023-03-14T05:45:33;12.50;90.60
16287;DHT22;8251;53.568;10.018;2023-03-14T05:48:00;12.50;90.60
16287;DHT22;8251;53.568;10.018;2023-03-14T05:50:32;12.50;90.70
16287;DHT22;8251;53.568;10.018;2023-03-14T05:53:02;12.60;90.70
16287;DHT22;8251;53.568;10.018;2023-03-14T05:55:28;12.60;90.70
16287;DHT22;8251;53.568;10.018;2023-03-14T05:57:56;12.60;90.70
16287;DHT22;8251;53.568;10.018;2023-03-14T06:00:23;12.50;90.70
16287;DHT22;8251;53.568;10.018;2023-03-14T06:02:50;12.50;90.70
16287;DHT22;8251;53.568;10.018;2023-03-14T06:05:17;12.50;90.90
16287;DHT22;8251;53.568;10.018;2023-03-14T06:07:47;12.40;90.90
16287;DHT22;8251;53.568;10.018;2023-03-14T06:10:14;12.40;91.00
16287;DHT22;8251;53.568;10.018;2023-03-14T06:12:41;12.40;91.20
16287;DHT22;8251;53.568;10.018;2023-03-14T06:15:09;12.40;91.20
16287;DHT22;8251;53.568;10.018;2023-03-14T06:17:36;12.30;91.30
16287;DHT22;8251;53.568;10.018;2023-03-14T06:20:07;12.30;91.30
16287;DHT22;8251;53.568;10.018;2023-03-14T06:22:35;12.20;91.20
16287;DHT22;8251;53.568;10.018;2023-03-14T06:25:05;12.30;91.20
16287;DHT22;8251;53.568;10.018;2023-03-14T06:27:32;12.30;91.20
16287;DHT22;8251;53.568;10.018;2023-03-14T06:30:01;12.20;91.20
16287;DHT22;8251;53.568;10.018;2023-03-14T06:32:35;12.20;91.30
16287;DHT22;8251;53.568;10.018;2023-03-14T06:35:02;12.20;91.30
16287;DHT22;8251;53.568;10.018;2023-03-14T06:37:32;12.20;91.30
16287;DHT22;8251;53.568;10.018;2023-03-14T06:39:59;12.10;91.90
16287;DHT22;8251;53.568;10.018;2023-03-14T06:42:27;12.10;91.80
16287;DHT22;8251;53.568;10.018;2023-03-14T06:44:54;12.20;91.60
16287;DHT22;8251;53.568;10.018;2023-03-14T06:47:21;12.10;91.40
16287;DHT22;8251;53.568;10.018;2023-03-14T06:49:48;12.20;91.20
16287;DHT22;8251;53.568;10.018;2023-03-14T06:52:15;12.20;91.20
16287;DHT22;8251;53.568;10.018;2023-03-14T06:54:42;12.30;90.70
16287;DHT22;8251;53.568;10.018;2023-03-14T06:57:08;12.30;90.60
16287;DHT22;8251;53.568;10.018;2023-03-14T06:59:37;12.20;90.70
16287;DHT22;8251;53.568;10.018;2023-03-14T07:02:04;12.10;90.60
16287;DHT22;8251;53.568;10.018;2023-03-14T07:04:32;12.00;90.90
16287;DHT22;8251;53.568;10.018;2023-03-14T07:06:59;12.00;90.60
16287;DHT22;8251;53.568;10.018;2023-03-14T07:09:26;12.00;90.40
16287;DHT22;8251;53.568;10.018;2023-03-14T07:11:54;12.00;90.30
16287;DHT22;8251;53.568;10.018;2023-03-14T07:14:22;12.00;90.00
16287;DHT22;8251;53.568;10.018;2023-03-14T07:16:53;12.00;89.90
16287;DHT22;8251;53.568;10.018;2023-03-14T07:19:20;12.00;89.70
16287;DHT22;8251;53.568;10.018;2023-03-14T07:21:47;12.10;89.40
16287;DHT22;8251;53.568;10.018;2023-03-14T07:24:13;12.00;89.60
16287;DHT22;8251;53.568;10.018;2023-03-14T07:26:40;12.10;88.90
16287;DHT22;8251;53.568;10.018;2023-03-14T07:29:15;12.10;89.10
16287;DHT22;8251;53.568;10.018;2023-03-14T07:31:51;12.20;88.90
16287;DHT22;8251;53.568;10.018;2023-03-14T07:34:20;12.30;89.50
16287;DHT22;8251;53.568;10.018;2023-03-14T07:36:47;12.30;89.30
16287;DHT22;8251;53.568;10.018;2023-03-14T07:39:14;12.40;89.40
16287;DHT22;8251;53.568;10.018;2023-03-14T07:41:41;12.40;89.50
16287;DHT22;8251;53.568;10.018;2023-03-14T07:44:08;12.40;89.90
16287;DHT22;8251;53.568;10.018;2023-03-14T07:46:35;12.30;90.00
16287;DHT22;8251;53.568;10.018;2023-03-14T07:49:07;12.30;90.00
16287;DHT22;8251;53.568;10.018;2023-03-14T07:51:34;12.40;89.60
16287;DHT22;8251;53.568;10.018;2023-03-14T07:54:01;12.50;89.00
16287;DHT22;8251;53.568;10.018;2023-03-14T07:56:28;12.50;89.00
16287;DHT22;8251;53.568;10.018;2023-03-14T07:58:55;12.50;88.50
16287;DHT22;8251;53.568;10.018;2023-03-14T08:01:25;12.40;88.40
16287;DHT22;8251;53.568;10.018;2023-03-14T08:03:52;12.40;87.90
16287;DHT22;8251;53.568;10.018;2023-03-14T08:06:20;12.50;88.30
16287;DHT22;8251;53.568;10.018;2023-03-14T08:08:47;12.60;87.90
16287;DHT22;8251;53.568;10.018;2023-03-14T08:11:14;12.50;87.60
16287;DHT22;8251;53.568;10.018;2023-03-14T08:13:43;12.40;87.90
16287;DHT22;8251;53.568;10.018;2023-03-14T08:16:15;12.30;88.30
16287;DHT22;8251;53.568;10.018;2023-03-14T08:18:45;12.40;88.30
16287;DHT22;8251;53.568;10.018;2023-03-14T08:21:12;12.50;88.20
16287;DHT22;8251;53.568;10.018;2023-03-14T08:23:41;12.50;87.60
16287;DHT22;8251;53.568;10.018;2023-03-14T08:26:08;12.50;88.00
16287;DHT22;8251;53.568;10.018;2023-03-14T08:28:35;12.60;87.90
16287;DHT22;8251;53.568;10.018;2023-03-14T08:31:02;12.60;87.50
16287;DHT22;8251;53.568;10.018;2023-03-14T08:33:32;12.70;87.50
16287;DHT22;8251;53.568;10.018;2023-03-14T08:36:00;12.70;87.40
16287;DHT22;8251;53.568;10.018;2023-03-14T08:38:28;12.60;87.20
16287;DHT22;8251;53.568;10.018;2023-03-14T08:41:01;12.60;87.60
16287;DHT22;8251;53.568;10.018;2023-03-14T08:43:40;12.60;88.40
16287;DHT22;8251;53.568;10.018;2023-03-14T08:46:10;12.60;88.00
16287;DHT22;8251;53.568;10.018;2023-03-14T08:48:38;12.60;88.10
16287;DHT22;8251;53.568;10.018;2023-03-14T08:51:07;12.60;87.90
16287;DHT22;8251;53.568;10.018;2023-03-14T08:53:38;12.70;87.60
16287;DHT22;8251;53.568;10.018;2023-03-14T08:56:07;12.70;87.20
16287;DHT22;8251;53.568;10.018;2023-03-14T08:58:35;12.70;87.40
16287;DHT22;8251;53.568;10.018;2023-03-14T09:01:03;12.70;87.90
16287;DHT22;8251;53.568;10.018;2023-03-14T09:03:31;12.70;88.30
16287;DHT22;8251;53.568;10.018;2023-03-14T09:06:02;12.60;88.60
16287;DHT22;8251;53.568;10.018;2023-03-14T09:08:30;12.60;88.80
16287;DHT22;8251;53.568;10.018;2023-03-14T09:10:59;12.80;88.90
16287;DHT22;8251;53.568;10.018;2023-03-14T09:13:31;12.70;88.60
16287;DHT22;8251;53.568;10.018;2023-03-14T09:15:58;12.70;89.00
16287;DHT22;8251;53.568;10.018;2023-03-14T09:18:27;12.60;89.20
16287;DHT22;8251;53.568;10.018;2023-03-14T09:20:55;12.60;89.60
16287;DHT22;8251;53.568;10.018;2023-03-14T09:23:22;12.70;89.30
16287;DHT22;8251;53.568;10.018;2023-03-14T09:25:54;12.70;89.00
16287;DHT22;8251;53.568;10.018;2023-03-14T09:28:22;12.70;88.90
16287;DHT22;8251;53.568;10.018;2023-03-14T09:30:51;12.70;89.20
16287;DHT22;8251;53.568;10.018;2023-03-14T09:33:18;12.60;90.00
16287;DHT22;8251;53.568;10.018;2023-03-14T09:35:45;12.60;89.40
16287;DHT22;8251;53.568;10.018;2023-03-14T09:38:12;12.60;89.40
16287;DHT22;8251;53.568;10.018;2023-03-14T09:40:39;12.70;89.40
16287;DHT22;8251;53.568;10.018;2023-03-14T09:43:08;12.60;90.10
16287;DHT22;8251;53.568;10.018;2023-03-14T09:45:38;12.50;90.20
16287;DHT22;8251;53.568;10.018;2023-03-14T09:48:14;12.60;90.40
16287;DHT22;8251;53.568;10.018;2023-03-14T09:50:43;12.60;90.70
16287;DHT22;8251;53.568;10.018;2023-03-14T09:53:15;12.60;90.90
16287;DHT22;8251;53.568;10.018;2023-03-14T09:55:43;12.50;91.20
16287;DHT22;8251;53.568;10.018;2023-03-14T09:58:13;12.50;91.00
16287;DHT22;8251;53.568;10.018;2023-03-14T10:00:41;12.50;91.40
16287;DHT22;8251;53.568;10.018;2023-03-14T10:03:22;12.40;90.40
16287;DHT22;8251;53.568;10.018;2023-03-14T10:05:51;12.20;88.60
16287;DHT22;8251;53.568;10.018;2023-03-14T10:08:18;12.00;89.10
16287;DHT22;8251;53.568;10.018;2023-03-14T10:10:45;11.90;88.30
16287;DHT22;8251;53.568;10.018;2023-03-14T10:13:16;11.70;88.70
16287;DHT22;8251;53.568;10.018;2023-03-14T10:15:48;11.70;87.90
16287;DHT22;8251;53.568;10.018;2023-03-14T10:18:17;11.50;88.40
16287;DHT22;8251;53.568;10.018;2023-03-14T10:20:45;11.40;89.20
16287;DHT22;8251;53.568;10.018;2023-03-14T10:23:23;11.50;89.90
16287;DHT22;8251;53.568;10.018;2023-03-14T10:26:01;11.50;89.40
16287;DHT22;8251;53.568;10.018;2023-03-14T10:28:33;11.40;89.20
16287;DHT22;8251;53.568;10.018;2023-03-14T10:31:01;11.20;86.80
16287;DHT22;8251;53.568;10.018;2023-03-14T10:33:32;11.10;87.00
16287;DHT22;8251;53.568;10.018;2023-03-14T10:36:00;11.00;87.00
16287;DHT22;8251;53.568;10.018;2023-03-14T10:38:30;10.90;86.60
16287;DHT22;8251;53.568;10.018;2023-03-14T10:40:59;10.70;86.50
16287;DHT22;8251;53.568;10.018;2023-03-14T10:43:32;10.50;84.90
16287;DHT22;8251;53.568;10.018;2023-03-14T10:46:05;10.20;84.00
16287;DHT22;8251;53.568;10.018;2023-03-14T10:48:35;9.90;83.90
16287;DHT22;8251;53.568;10.018;2023-03-14T10:51:06;9.80;85.50
16287;DHT22;8251;53.568;10.018;2023-03-14T10:53:38;9.70;86.20
16287;DHT22;8251;53.568;10.018;2023-03-14T10:56:06;9.60;85.70
16287;DHT22;8251;53.568;10.018;2023-03-14T10:58:37;9.50;86.10
16287;DHT22;8251;53.568;10.018;2023-03-14T11:01:16;9.40;86.30
16287;DHT22;8251;53.568;10.018;2023-03-14T11:03:53;9.50;86.10
16287;DHT22;8251;53.568;10.018;2023-03-14T11:06:25;9.40;85.20
16287;DHT22;8251;53.568;10.018;2023-03-14T11:08:58;9.40;85.00
16287;DHT22;8251;53.568;10.018;2023-03-14T11:11:31;9.30;84.70
16287;DHT22;8251;53.568;10.018;2023-03-14T11:14:12;9.20;84.70
16287;DHT22;8251;53.568;10.018;2023-03-14T11:16:49;9.10;84.30
16287;DHT22;8251;53.568;10.018;2023-03-14T11:19:57;9.00;85.00
16287;DHT22;8251;53.568;10.018;2023-03-14T11:22:39;8.80;84.50
16287;DHT22;8251;53.568;10.018;2023-03-14T11:25:20;8.90;84.30
16287;DHT22;8251;53.568;10.018;2023-03-14T11:27:56;8.80;83.60
16287;DHT22;8251;53.568;10.018;2023-03-14T11:30:32;8.70;84.20
16287;DHT22;8251;53.568;10.018;2023-03-14T11:33:07;8.60;84.60
16287;DHT22;8251;53.568;10.018;2023-03-14T11:35:41;8.60;84.20
16287;DHT22;8251;53.568;10.018;2023-03-14T11:38:21;8.60;84.60
16287;DHT22;8251;53.568;10.018;2023-03-14T11:41:03;8.50;83.70
16287;DHT22;8251;53.568;10.018;2023-03-14T11:43:38;8.40;84.30
16287;DHT22;8251;53.568;10.018;2023-03-14T11:46:10;8.40;85.00
16287;DHT22;8251;53.568;10.018;2023-03-14T11:48:43;8.50;84.20
16287;DHT22;8251;53.568;10.018;2023-03-14T11:51:20;8.60;83.80
16287;DHT22;8251;53.568;10.018;2023-03-14T11:53:57;8.60;82.30
16287;DHT22;8251;53.568;10.018;2023-03-14T11:56:30;8.60;81.50
16287;DHT22;8251;53.568;10.018;2023-03-14T11:59:01;8.60;79.80
16287;DHT22;8251;53.568;10.018;2023-03-14T12:01:37;8.70;81.00
16287;DHT22;8251;53.568;10.018;2023-03-14T12:04:18;8.70;80.30
16287;DHT22;8251;53.568;10.018;2023-03-14T12:06:50;8.80;81.30
16287;DHT22;8251;53.568;10.018;2023-03-14T12:09:18;8.80;81.40
16287;DHT22;8251;53.568;10.018;2023-03-14T12:11:49;8.90;81.10
16287;DHT22;8251;53.568;10.018;2023-03-14T12:14:24;9.00;80.50
16287;DHT22;8251;53.568;10.018;2023-03-14T12:16:57;9.10;78.20
16287;DHT22;8251;53.568;10.018;2023-03-14T12:19:42;9.10;76.90
16287;DHT22;8251;53.568;10.018;2023-03-14T12:22:34;9.10;76.90
16287;DHT22;8251;53.568;10.018;2023-03-14T12:25:13;9.10;76.70
16287;DHT22;8251;53.568;10.018;2023-03-14T12:30:53;9.10;76.80
16287;DHT22;8251;53.568;10.018;2023-03-14T12:33:27;9.10;76.30
16287;DHT22;8251;53.568;10.018;2023-03-14T12:36:12;9.10;76.60
16287;DHT22;8251;53.568;10.018;2023-03-14T12:39:08;9.10;76.80
16287;DHT22;8251;53.568;10.018;2023-03-14T12:41:40;9.10;77.20
16287;DHT22;8251;53.568;10.018;2023-03-14T12:44:44;9.20;77.80
16287;DHT22;8251;53.568;10.018;2023-03-14T12:50:15;9.20;77.10
16287;DHT22;8251;53.568;10.018;2023-03-14T12:52:54;9.20;76.70
16287;DHT22;8251;53.568;10.018;2023-03-14T12:55:34;9.20;77.00
16287;DHT22;8251;53.568;10.018;2023-03-14T12:58:12;9.20;76.90
16287;DHT22;8251;53.568;10.018;2023-03-14T13:00:43;9.20;76.70
16287;DHT22;8251;53.568;10.018;2023-03-14T13:03:18;9.30;77.70
16287;DHT22;8251;53.568;10.018;2023-03-14T13:05:57;9.30;77.70
16287;DHT22;8251;53.568;10.018;2023-03-14T13:08:41;9.30;77.60
16287;DHT22;8251;53.568;10.018;2023-03-14T13:11:28;9.20;77.80
16287;DHT22;8251;53.568;10.018;2023-03-14T13:13:57;9.30;78.70
16287;DHT22;8251;53.568;10.018;2023-03-14T13:16:27;9.30;79.30
16287;DHT22;8251;53.568;10.018;2023-03-14T13:19:02;9.40;80.00
16287;DHT22;8251;53.568;10.018;2023-03-14T13:21:35;9.40;79.20
16287;DHT22;8251;53.568;10.018;2023-03-14T13:24:04;9.40;78.60
16287;DHT22;8251;53.568;10.018;2023-03-14T13:26:37;9.50;78.50
16287;DHT22;8251;53.568;10.018;2023-03-14T13:29:16;9.60;78.90
16287;DHT22;8251;53.568;10.018;2023-03-14T13:31:46;9.70;71.20
16287;DHT22;8251;53.568;10.018;2023-03-14T13:34:14;9.60;65.10
16287;DHT22;8251;53.568;10.018;2023-03-14T13:36:41;9.60;64.40
16287;DHT22;8251;53.568;10.018;2023-03-14T13:39:12;9.60;62.80
16287;DHT22;8251;53.568;10.018;2023-03-14T13:41:45;9.60;61.40
16287;DHT22;8251;53.568;10.018;2023-03-14T13:44:15;9.60;60.20
16287;DHT22;8251;53.568;10.018;2023-03-14T13:46:47;9.70;60.50
16287;DHT22;8251;53.568;10.018;2023-03-14T13:49:21;9.80;58.40
16287;DHT22;8251;53.568;10.018;2023-03-14T13:51:48;9.90;59.40
16287;DHT22;8251;53.568;10.018;2023-03-14T13:54:16;9.90;60.20
16287;DHT22;8251;53.568;10.018;2023-03-14T13:56:45;10.00;58.90
16287;DHT22;8251;53.568;10.018;2023-03-14T13:59:23;10.00;58.00
16287;DHT22;8251;53.568;10.018;2023-03-14T14:01:52;10.00;57.50
16287;DHT22;8251;53.568;10.018;2023-03-14T14:04:21;9.90;58.10
16287;DHT22;8251;53.568;10.018;2023-03-14T14:06:52;9.90;58.50
16287;DHT22;8251;53.568;10.018;2023-03-14T14:09:26;9.80;58.70
16287;DHT22;8251;53.568;10.018;2023-03-14T14:11:56;9.80;59.70
16287;DHT22;8251;53.568;10.018;2023-03-14T14:14:29;9.60;61.60
16287;DHT22;8251;53.568;10.018;2023-03-14T14:17:00;9.50;63.70
16287;DHT22;8251;53.568;10.018;2023-03-14T14:19:30;9.40;61.40
16287;DHT22;8251;53.568;10.018;2023-03-14T14:21:59;9.40;61.00
16287;DHT22;8251;53.568;10.018;2023-03-14T14:24:30;9.40;59.50
16287;DHT22;8251;53.568;10.018;2023-03-14T14:27:01;9.40;59.80
16287;DHT22;8251;53.568;10.018;2023-03-14T14:29:33;9.50;58.70
16287;DHT22;8251;53.568;10.018;2023-03-14T14:32:02;9.50;58.80
16287;DHT22;8251;53.568;10.018;2023-03-14T14:34:39;9.40;59.00
16287;DHT22;8251;53.568;10.018;2023-03-14T14:37:18;9.50;60.30
16287;DHT22;8251;53.568;10.018;2023-03-14T14:39:46;9.50;58.20
16287;DHT22;8251;53.568;10.018;2023-03-14T14:42:19;9.50;58.30
16287;DHT22;8251;53.568;10.018;2023-03-14T15:35:40;9.60;60.30
16287;DHT22;8251;53.568;10.018;2023-03-14T15:38:11;9.50;61.60
16287;DHT22;8251;53.568;10.018;2023-03-14T15:40:39;9.50;61.40
16287;DHT22;8251;53.568;10.018;2023-03-14T15:43:07;9.60;62.80
16287;DHT22;8251;53.568;10.018;2023-03-14T15:45:34;9.50;60.20
16287;DHT22;8251;53.568;10.018;2023-03-14T15:48:01;9.40;58.40
16287;DHT22;8251;53.568;10.018;2023-03-14T15:50:28;9.30;57.90
16287;DHT22;8251;53.568;10.018;2023-03-14T15:52:57;9.20;57.30
16287;DHT22;8251;53.568;10.018;2023-03-14T15:55:26;9.20;56.40
16287;DHT22;8251;53.568;10.018;2023-03-14T15:57:53;9.20;57.00
16287;DHT22;8251;53.568;10.018;2023-03-14T16:00:20;9.10;56.70
16287;DHT22;8251;53.568;10.018;2023-03-14T16:02:48;9.00;56.40
16287;DHT22;8251;53.568;10.018;2023-03-14T16:05:16;9.10;56.60
16287;DHT22;8251;53.568;10.018;2023-03-14T16:07:44;9.00;57.30
16287;DHT22;8251;53.568;10.018;2023-03-14T16:10:13;9.00;58.30
16287;DHT22;8251;53.568;10.018;2023-03-14T16:12:41;9.00;59.10
16287;DHT22;8251;53.568;10.018;2023-03-14T16:15:09;9.00;59.50
16287;DHT22;8251;53.568;10.018;2023-03-14T16:17:37;9.00;59.80
16287;DHT22;8251;53.568;10.018;2023-03-14T16:20:06;9.10;60.10
16287;DHT22;8251;53.568;10.018;2023-03-14T16:22:34;9.00;59.30
16287;DHT22;8251;53.568;10.018;2023-03-14T16:25:02;9.00;60.20
16287;DHT22;8251;53.568;10.018;2023-03-14T16:27:30;9.00;59.70
16287;DHT22;8251;53.568;10.018;2023-03-14T16:29:57;9.00;59.60
16287;DHT22;8251;53.568;10.018;2023-03-14T16:32:25;9.00;59.70
16287;DHT22;8251;53.568;10.018;2023-03-14T16:34:52;8.80;58.70
16287;DHT22;8251;53.568;10.018;2023-03-14T16:37:19;8.80;59.60
16287;DHT22;8251;53.568;10.018;2023-03-14T16:39:47;8.70;60.00
16287;DHT22;8251;53.568;10.018;2023-03-14T16:42:15;8.60;59.90
16287;DHT22;8251;53.568;10.018;2023-03-14T16:44:44;8.50;59.80
16287;DHT22;8251;53.568;10.018;2023-03-14T16:47:10;8.50;59.70
16287;DHT22;8251;53.568;10.018;2023-03-14T16:49:37;8.50;60.50
16287;DHT22;8251;53.568;10.018;2023-03-14T16:52:05;8.50;60.10